Time;durP1;ratioP1;P1;durP2;ratioP2;P2;SDS_P1;SDS_P2;PMS_P1;PMS_P2;Temp;Humidity;BMP_temperature;BMP_pressure;BME280_temperature;BME280_humidity;BME280_pressure;Samples;Min_cycle;Max_cycle;Signal;HPM_P1;HPM_P2
2021/09/11 00:01:58;;;;;;;7.28;4.28;;;;;;;11.19;90.30;97701.31;5041321;28;20020;-85
2021/09/11 00:04:23;;;;;;;11.30;4.32;;;;;;;11.13;90.35;97690.13;5053055;28;20025;-85
2021/09/11 00:06:49;;;;;;;7.75;4.30;;;;;;;11.06;90.87;97686.94;5039054;28;20415;-85
2021/09/11 00:09:14;;;;;;;8.63;4.28;;;;;;;11.01;89.88;97673.00;5037923;28;20025;-85
2021/09/11 00:11:40;;;;;;;5.93;4.15;;;;;;;10.99;89.64;97680.25;5057491;28;20468;-85
2021/09/11 00:14:06;;;;;;;7.50;4.55;;;;;;;10.86;91.24;97679.25;5045640;28;20447;-85
2021/09/11 00:16:31;;;;;;;5.85;4.10;;;;;;;10.79;92.73;97678.81;5056813;28;20100;-85
2021/09/11 00:18:57;;;;;;;7.50;4.45;;;;;;;10.69;92.24;97660.72;5042214;28;20025;-84
2021/09/11 00:21:22;;;;;;;6.60;4.00;;;;;;;10.69;92.72;97671.41;5042402;28;20024;-84
2021/09/11 00:23:48;;;;;;;7.85;4.22;;;;;;;10.73;93.52;97695.22;5042010;28;20029;-84
2021/09/11 00:26:14;;;;;;;11.18;4.18;;;;;;;10.62;92.86;97686.09;5040694;28;20048;-84
2021/09/11 00:28:39;;;;;;;6.53;4.20;;;;;;;10.61;92.27;97669.19;5059115;28;20499;-84
2021/09/11 00:31:07;;;;;;;7.13;4.68;;;;;;;10.61;90.71;97658.47;5041269;28;20036;-85
2021/09/11 00:33:32;;;;;;;10.00;4.57;;;;;;;10.56;91.26;97671.28;5058872;28;20107;-85
2021/09/11 00:35:58;;;;;;;11.98;4.13;;;;;;;10.52;91.57;97664.38;5062285;28;20125;-84
2021/09/11 00:38:23;;;;;;;10.30;3.90;;;;;;;10.41;92.31;97661.50;5048378;28;20111;-85
2021/09/11 00:40:49;;;;;;;5.88;3.95;;;;;;;10.39;92.60;97662.56;5041729;28;20097;-85
2021/09/11 00:43:25;;;;;;;9.88;3.80;;;;;;;10.46;93.47;97686.16;5047224;28;20275;-84
2021/09/11 00:45:51;;;;;;;5.50;4.20;;;;;;;10.21;93.69;97660.00;5057376;28;20024;-84
2021/09/11 00:48:17;;;;;;;9.13;4.20;;;;;;;10.31;93.24;97671.88;5042688;28;20028;-84
2021/09/11 00:50:43;;;;;;;5.72;3.60;;;;;;;10.34;93.25;97678.84;5057947;28;20024;-84
2021/09/11 00:53:09;;;;;;;7.78;3.88;;;;;;;10.43;92.13;97680.16;5053018;28;20021;-84
2021/09/11 00:55:37;;;;;;;9.98;4.00;;;;;;;10.52;91.36;97687.63;5057790;28;20119;-84
2021/09/11 00:58:03;;;;;;;10.82;3.95;;;;;;;10.45;91.85;97679.09;5055608;28;20020;-85
2021/09/11 01:00:28;;;;;;;6.68;3.67;;;;;;;10.43;91.52;97680.97;5054837;28;20032;-84
2021/09/11 01:02:54;;;;;;;8.50;3.63;;;;;;;10.25;92.01;97666.91;5040745;28;20042;-85
2021/09/11 01:05:19;;;;;;;6.07;4.20;;;;;;;10.29;92.90;97689.84;5040748;28;20032;-85
2021/09/11 01:07:46;;;;;;;7.90;3.90;;;;;;;10.35;93.87;97699.31;5058997;28;20428;-85
2021/09/11 01:10:12;;;;;;;6.90;3.72;;;;;;;10.31;93.70;97684.38;5057936;28;20484;-84
2021/09/11 01:12:39;;;;;;;6.03;3.90;;;;;;;10.22;93.54;97661.72;5046819;28;20031;-85
2021/09/11 01:15:07;;;;;;;6.60;3.75;;;;;;;10.33;94.03;97678.03;5039167;28;20125;-85
2021/09/11 01:17:32;;;;;;;6.57;3.97;;;;;;;10.32;94.24;97684.31;5056384;28;20074;-85
2021/09/11 01:19:58;;;;;;;9.13;3.90;;;;;;;10.15;94.88;97670.22;5057376;28;20025;-86
2021/09/11 01:22:24;;;;;;;7.35;4.35;;;;;;;10.18;95.42;97676.22;5040252;28;20033;-85
2021/09/11 01:25:09;;;;;;;7.47;4.07;;;;;;;10.29;95.71;97697.00;5057627;28;20035;-85
2021/09/11 01:27:35;;;;;;;7.60;4.35;;;;;;;10.11;95.66;97673.97;5057749;28;20047;-85
2021/09/11 01:30:07;;;;;;;8.38;4.30;;;;;;;10.08;96.08;97680.38;5045136;28;20025;-85
2021/09/11 01:32:33;;;;;;;;;;;;;;;10.19;96.33;97699.34;5056328;28;20017;-85
2021/09/11 01:34:59;;;;;;;8.57;4.05;;;;;;;10.13;96.74;97694.34;5056861;28;19912;-85
2021/09/11 01:37:25;;;;;;;6.68;3.97;;;;;;;9.58;97.59;97604.91;5058728;28;20612;-85
2021/09/11 01:39:51;;;;;;;10.23;4.63;;;;;;;9.95;98.02;97689.16;5042726;28;20028;-84
2021/09/11 01:42:22;;;;;;;8.50;4.82;;;;;;;9.74;98.58;97664.53;5047725;28;20027;-85
2021/09/11 01:44:49;;;;;;;9.52;4.55;;;;;;;9.78;98.89;97674.09;5065006;28;20021;-83
2021/09/11 01:47:15;;;;;;;9.75;4.82;;;;;;;9.85;99.98;97688.81;5040779;28;20024;-85
2021/09/11 01:49:42;;;;;;;8.88;4.88;;;;;;;9.68;99.68;97665.75;5056547;28;20139;-85
2021/09/11 01:52:08;;;;;;;6.18;3.95;;;;;;;9.72;99.95;97666.44;5064822;28;20499;-84
2021/09/11 01:54:34;;;;;;;5.70;3.70;;;;;;;9.77;99.18;97675.91;5056797;28;20028;-85
2021/09/11 01:57:00;;;;;;;8.93;3.55;;;;;;;9.53;98.85;97671.09;5040750;28;20027;-84
2021/09/11 01:59:25;;;;;;;8.98;3.97;;;;;;;9.45;99.42;97638.59;5042191;28;20028;-85
2021/09/11 02:01:51;;;;;;;11.65;3.90;;;;;;;9.59;98.63;97670.75;5081656;28;20032;-85
2021/09/11 02:04:16;;;;;;;10.30;3.67;;;;;;;9.59;99.77;97687.63;5057539;28;20483;-85
2021/09/11 02:06:42;;;;;;;12.32;3.78;;;;;;;9.43;99.76;97670.72;5041953;28;20028;-85
2021/09/11 02:09:08;;;;;;;8.00;3.72;;;;;;;9.37;99.67;97665.72;5052962;28;20112;-85
2021/09/11 02:11:33;;;;;;;6.28;3.90;;;;;;;9.50;99.33;97681.94;5039686;28;20491;-85
2021/09/11 02:13:59;;;;;;;13.68;4.50;;;;;;;9.53;99.98;97687.09;5066028;28;20025;-84
2021/09/11 02:16:24;;;;;;;6.72;3.90;;;;;;;9.15;100.00;97612.69;5063917;28;20570;-85
2021/09/11 02:18:50;;;;;;;9.98;4.07;;;;;;;9.41;100.00;97667.28;5057832;28;20047;-85
2021/09/11 02:21:16;;;;;;;12.45;4.05;;;;;;;9.24;100.00;97649.53;5078347;28;20095;-85
2021/09/11 02:23:41;;;;;;;11.25;4.22;;;;;;;9.37;100.00;97668.41;5038179;28;20491;-84
2021/09/11 02:26:07;;;;;;;9.80;3.83;;;;;;;9.11;100.00;97632.47;5042430;28;20076;-84
2021/09/11 02:28:32;;;;;;;9.88;4.32;;;;;;;9.40;100.00;97670.03;5038732;28;20484;-85
2021/09/11 02:30:58;;;;;;;11.25;4.28;;;;;;;9.38;100.00;97670.13;5043126;28;20024;-86
2021/09/11 02:33:23;;;;;;;7.40;4.47;;;;;;;9.31;100.00;97673.22;5042453;28;20020;-84
2021/09/11 02:35:49;;;;;;;11.93;4.40;;;;;;;9.33;100.00;97674.84;5038935;28;20021;-85
2021/09/11 02:38:15;;;;;;;10.25;4.60;;;;;;;9.24;100.00;97662.00;5056511;28;20020;-85
2021/09/11 02:40:40;;;;;;;5.70;3.97;;;;;;;9.18;100.00;97652.53;5056567;28;20059;-84
2021/09/11 02:43:06;;;;;;;8.45;4.00;;;;;;;9.23;100.00;97678.94;5058944;28;20082;-85
2021/09/11 02:45:31;;;;;;;7.05;3.72;;;;;;;9.12;100.00;97671.56;5038697;28;20454;-84
2021/09/11 02:47:57;;;;;;;8.52;4.22;;;;;;;9.09;100.00;97679.72;5058334;28;20107;-84
2021/09/11 02:50:23;;;;;;;6.93;4.32;;;;;;;9.09;100.00;97693.06;5038994;28;20054;-84
2021/09/11 02:52:48;;;;;;;7.35;3.92;;;;;;;9.01;100.00;97681.91;5038299;28;20028;-84
2021/09/11 02:55:14;;;;;;;8.02;4.50;;;;;;;9.07;100.00;97694.09;5059924;28;20093;-85
2021/09/11 02:57:39;;;;;;;9.27;3.85;;;;;;;8.91;100.00;97677.19;5066339;28;20105;-85
2021/09/11 03:00:06;;;;;;;5.85;3.42;;;;;;;9.04;100.00;97705.81;5061608;28;20050;-85
2021/09/11 03:02:31;;;;;;;5.72;4.18;;;;;;;8.72;100.00;97639.94;5035994;28;20032;-85
2021/09/11 03:04:57;;;;;;;12.27;3.95;;;;;;;9.03;100.00;97677.38;5054950;28;20412;-85
2021/09/11 03:07:22;;;;;;;8.30;3.63;;;;;;;9.00;100.00;97682.00;5059263;28;20508;-85
2021/09/11 03:09:48;;;;;;;6.13;4.05;;;;;;;8.91;100.00;97672.72;5065520;28;20035;-85
2021/09/11 03:12:13;;;;;;;11.73;4.75;;;;;;;8.99;100.00;97699.81;5046016;28;20032;-84
2021/09/11 03:14:39;;;;;;;16.23;5.15;;;;;;;9.04;100.00;97684.47;5050960;28;20028;-84
2021/09/11 03:17:04;;;;;;;17.40;7.47;;;;;;;9.02;100.00;97686.31;5046648;28;20020;-85
2021/09/11 03:19:30;;;;;;;15.50;6.93;;;;;;;8.97;100.00;97688.38;5047888;28;20035;-85
2021/09/11 03:21:55;;;;;;;15.98;5.55;;;;;;;9.02;100.00;97697.00;5037926;28;20024;-84
2021/09/11 03:24:21;;;;;;;7.43;4.88;;;;;;;8.97;100.00;97704.38;5049588;28;20024;-84
2021/09/11 03:26:46;;;;;;;10.30;4.88;;;;;;;8.90;100.00;97707.44;5054452;28;20637;-85
2021/09/11 03:29:12;;;;;;;10.93;5.88;;;;;;;8.76;100.00;97700.19;5054195;28;20028;-84
2021/09/11 03:31:38;;;;;;;17.63;6.20;;;;;;;8.59;100.00;97686.84;5037121;28;20031;-84
2021/09/11 03:34:03;;;;;;;11.60;6.05;;;;;;;8.58;100.00;97685.16;5037847;28;20028;-84
2021/09/11 03:36:29;;;;;;;10.35;5.60;;;;;;;8.39;100.00;97669.25;5057896;28;20027;-84
2021/09/11 03:38:54;;;;;;;13.82;6.28;;;;;;;8.47;100.00;97693.69;5037531;28;20501;-84
2021/09/11 03:41:20;;;;;;;13.82;6.50;;;;;;;8.59;100.00;97710.84;5037971;28;20588;-84
2021/09/11 03:43:45;;;;;;;16.88;6.90;;;;;;;8.41;100.00;97696.66;5037429;28;20059;-84
2021/09/11 03:46:11;;;;;;;14.52;6.07;;;;;;;8.55;100.00;97719.97;5038982;28;20028;-85
2021/09/11 03:48:36;;;;;;;15.68;5.53;;;;;;;8.51;100.00;97700.59;5058153;28;20020;-84
2021/09/11 03:51:02;;;;;;;11.15;5.30;;;;;;;8.43;100.00;97680.63;5044227;28;20036;-84
2021/09/11 03:53:28;;;;;;;14.98;6.47;;;;;;;8.48;100.00;97694.56;5059180;28;20020;-84
2021/09/11 03:55:54;;;;;;;13.52;5.95;;;;;;;8.62;100.00;97718.69;5061176;28;20028;-83
2021/09/11 03:58:19;;;;;;;12.35;6.40;;;;;;;8.53;100.00;97708.50;5054643;28;20093;-84
2021/09/11 04:00:45;;;;;;;13.75;5.13;;;;;;;8.56;100.00;97709.22;5035813;28;20029;-83
2021/09/11 04:03:10;;;;;;;11.00;4.22;;;;;;;8.56;100.00;97714.53;5072002;28;20025;-84
2021/09/11 04:05:36;;;;;;;10.13;4.57;;;;;;;8.40;100.00;97696.75;5054289;28;20511;-84
2021/09/11 04:08:01;;;;;;;13.23;4.57;;;;;;;8.51;100.00;97710.38;5054777;28;20052;-85
2021/09/11 04:10:27;;;;;;;8.73;4.93;;;;;;;8.29;100.00;97680.44;5041853;28;20067;-83
2021/09/11 04:12:53;;;;;;;9.77;4.68;;;;;;;8.13;100.00;97646.53;5045017;28;20399;-83
2021/09/11 04:15:18;;;;;;;9.52;5.55;;;;;;;8.57;100.00;97705.63;5050340;28;20052;-83
2021/09/11 04:17:44;;;;;;;15.57;6.30;;;;;;;8.49;100.00;97694.47;5043020;28;20020;-84
2021/09/11 04:20:10;;;;;;;12.77;6.38;;;;;;;8.65;100.00;97719.41;5037103;28;20443;-84
2021/09/11 04:22:36;;;;;;;14.98;5.60;;;;;;;8.56;100.00;97705.69;5038979;28;20530;-84
2021/09/11 04:25:01;;;;;;;22.27;5.78;;;;;;;8.59;100.00;97701.06;5054427;28;20028;-84
2021/09/11 04:27:27;;;;;;;19.10;5.13;;;;;;;8.48;100.00;97682.09;5037748;28;20020;-84
2021/09/11 04:29:52;;;;;;;9.52;4.55;;;;;;;8.71;100.00;97720.88;5047477;28;20490;-78
2021/09/11 04:32:18;;;;;;;12.90;5.22;;;;;;;8.73;100.00;97715.47;5085319;28;20024;-79
2021/09/11 04:34:43;;;;;;;12.32;5.00;;;;;;;8.80;100.00;97717.72;5077179;28;20028;-78
2021/09/11 04:37:09;;;;;;;9.98;4.90;;;;;;;8.83;100.00;97714.06;5081982;28;20024;-78
2021/09/11 04:39:34;;;;;;;10.68;4.57;;;;;;;8.90;100.00;97726.13;5066997;28;20028;-78
2021/09/11 04:42:00;;;;;;;13.95;5.32;;;;;;;8.93;100.00;97718.81;5072101;28;20032;-78
2021/09/11 04:44:27;;;;;;;9.95;4.90;;;;;;;8.99;100.00;97723.84;5072844;28;20025;-84
2021/09/11 04:46:53;;;;;;;8.90;5.00;;;;;;;8.86;100.00;97701.41;5053523;28;20106;-79
2021/09/11 04:49:18;;;;;;;10.25;4.97;;;;;;;8.94;100.00;97698.34;5070738;28;20021;-82
2021/09/11 04:51:44;;;;;;;12.50;5.32;;;;;;;9.12;100.00;97727.59;5079223;28;20039;-86
2021/09/11 04:54:09;;;;;;;13.52;6.28;;;;;;;9.17;100.00;97719.31;5053225;28;20024;-85
2021/09/11 04:56:35;;;;;;;11.27;5.75;;;;;;;9.15;100.00;97697.19;5061068;28;20263;-85
2021/09/11 04:59:00;;;;;;;16.25;5.78;;;;;;;9.26;100.00;97711.69;5039991;28;20463;-81
2021/09/11 05:01:26;;;;;;;14.52;5.40;;;;;;;9.40;100.00;97726.09;5043661;28;20060;-87
2021/09/11 05:03:52;;;;;;;11.77;6.15;;;;;;;9.41;100.00;97703.81;5057986;28;20067;-86
2021/09/11 05:06:17;;;;;;;14.63;7.00;;;;;;;9.81;99.46;97730.88;5083345;28;20097;-85
2021/09/11 05:08:43;;;;;;;14.00;6.20;;;;;;;9.82;98.94;97721.03;5045054;28;20035;-85
2021/09/11 05:11:08;;;;;;;10.98;6.00;;;;;;;9.84;98.56;97707.63;5075254;28;20032;-85
2021/09/11 05:13:34;;;;;;;12.95;5.75;;;;;;;10.13;97.90;97737.09;5056292;28;20029;-88
2021/09/11 05:16:00;;;;;;;14.68;6.47;;;;;;;10.17;97.12;97741.34;5041792;28;20028;-85
2021/09/11 05:18:25;;;;;;;13.98;5.97;;;;;;;10.26;96.46;97711.41;5044574;28;20031;-87
2021/09/11 05:20:51;;;;;;;9.15;5.93;;;;;;;10.39;93.96;97697.31;5054495;28;20028;-86
2021/09/11 05:23:39;;;;;;;16.30;6.85;;;;;;;10.80;92.54;97739.38;5054962;28;20035;-84
2021/09/11 05:26:05;;;;;;;13.48;6.03;;;;;;;10.91;91.01;97720.00;5073076;28;20048;-81
2021/09/11 05:28:31;;;;;;;20.13;6.05;;;;;;;11.26;88.91;97720.50;5055095;28;20075;-82
2021/09/11 05:30:56;;;;;;;14.20;5.88;;;;;;;13.29;79.17;97734.72;5055393;28;20032;-84
2021/09/11 05:33:22;;;;;;;9.93;5.82;;;;;;;15.44;66.58;97718.59;5055372;28;20407;-82
2021/09/11 05:35:48;;;;;;;11.00;5.78;;;;;;;17.73;57.73;97737.25;5054731;28;20031;-82
2021/09/11 05:38:13;;;;;;;9.95;5.57;;;;;;;19.09;52.07;97721.22;5054998;28;20047;-82
2021/09/11 05:40:39;;;;;;;11.13;5.82;;;;;;;20.64;47.90;97718.72;5054921;28;20458;-82
2021/09/11 05:43:04;;;;;;;14.38;6.15;;;;;;;21.71;44.41;97714.94;5072843;28;20403;-82
2021/09/11 05:45:30;;;;;;;15.05;7.00;;;;;;;22.41;42.39;97718.41;5055260;28;20079;-82
2021/09/11 05:47:56;;;;;;;17.73;6.35;;;;;;;22.79;41.28;97690.63;5072724;28;20047;-83
2021/09/11 05:50:21;;;;;;;13.98;6.80;;;;;;;22.89;41.03;97710.38;5055098;28;20036;-85
2021/09/11 05:52:47;;;;;;;10.95;6.82;;;;;;;23.22;40.02;97698.47;5055204;28;20161;-84
2021/09/11 05:55:12;;;;;;;13.55;7.95;;;;;;;24.44;37.98;97679.16;5073031;28;20059;-83
2021/09/11 05:57:38;;;;;;;21.48;9.73;;;;;;;25.01;36.40;97682.44;5072581;28;20029;-82
2021/09/11 06:00:04;;;;;;;34.88;9.23;;;;;;;25.21;35.85;97698.19;5037760;28;20028;-83
2021/09/11 06:02:30;;;;;;;16.77;10.02;;;;;;;24.74;36.41;97681.88;5037771;28;20483;-83
2021/09/11 06:04:55;;;;;;;19.10;9.40;;;;;;;25.24;35.53;97675.94;5042716;28;20035;-83
2021/09/11 06:07:21;;;;;;;19.83;9.32;;;;;;;25.91;34.80;97659.56;5054220;28;20035;-84
2021/09/11 06:09:46;;;;;;;22.30;10.65;;;;;;;26.38;33.75;97681.16;5055085;28;20036;-85
2021/09/11 06:12:12;;;;;;;19.85;7.80;;;;;;;26.28;33.93;97678.69;5054714;28;20031;-84
2021/09/11 06:14:39;;;;;;;21.48;7.82;;;;;;;24.23;36.78;97694.28;5034081;28;20040;-83
2021/09/11 06:17:05;;;;;;;18.88;6.78;;;;;;;24.92;35.58;97702.69;5057082;28;20020;-83
2021/09/11 06:19:31;;;;;;;15.55;6.47;;;;;;;25.61;34.67;97707.16;5055078;28;20127;-79
2021/09/11 06:21:57;;;;;;;22.48;8.95;;;;;;;25.41;34.88;97686.75;5078442;28;20056;-81
2021/09/11 06:24:22;;;;;;;14.30;6.57;;;;;;;26.01;33.70;97675.72;5055662;28;20028;-79
2021/09/11 06:26:48;;;;;;;14.02;7.13;;;;;;;25.91;34.22;97689.72;5054911;28;20059;-80
2021/09/11 06:29:13;;;;;;;13.95;7.40;;;;;;;27.35;32.14;97688.84;5074475;28;20117;-79
2021/09/11 06:31:39;;;;;;;18.83;7.28;;;;;;;27.48;32.07;97684.53;5057629;28;20090;-80
2021/09/11 06:34:04;;;;;;;12.85;6.18;;;;;;;27.29;32.12;97675.03;5077667;28;20035;-78
2021/09/11 06:36:30;;;;;;;19.33;6.35;;;;;;;27.79;31.81;97687.78;5053835;28;20547;-78
2021/09/11 06:38:55;;;;;;;16.67;6.10;;;;;;;26.91;32.43;97674.44;5070821;28;20028;-80
2021/09/11 06:41:21;;;;;;;11.82;7.00;;;;;;;27.63;31.03;97677.06;5058863;28;20127;-80
2021/09/11 06:43:46;;;;;;;11.70;5.75;;;;;;;27.55;31.46;97672.56;5061913;28;20066;-78
2021/09/11 06:46:12;;;;;;;20.35;7.60;;;;;;;27.94;30.42;97666.50;5063231;28;20024;-80
2021/09/11 06:48:37;;;;;;;8.95;5.75;;;;;;;28.43;29.61;97667.25;5080748;28;20723;-81
2021/09/11 06:51:03;;;;;;;22.67;7.25;;;;;;;28.96;29.15;97673.88;5062376;28;20050;-82
2021/09/11 06:53:28;;;;;;;13.15;5.90;;;;;;;28.00;29.98;97654.72;5058838;28;20036;-78
2021/09/11 06:58:38;;;;;;;14.95;6.95;;;;;;;25.43;33.88;97696.50;5076430;28;20059;-79
2021/09/11 07:01:03;;;;;;;16.05;7.47;;;;;;;26.74;32.31;97690.25;5058186;28;20016;-80
2021/09/11 07:03:29;;;;;;;14.23;6.65;;;;;;;27.35;31.46;97674.25;5061875;28;20046;-79
2021/09/11 07:05:55;;;;;;;23.70;8.70;;;;;;;28.84;29.38;97688.44;5059417;28;20021;-80
2021/09/11 07:08:20;;;;;;;17.90;7.38;;;;;;;29.13;29.25;97682.63;5082073;28;20107;-80
2021/09/11 07:10:46;;;;;;;14.98;6.75;;;;;;;29.82;27.96;97680.41;5059099;28;20024;-80
2021/09/11 07:13:11;;;;;;;18.98;6.97;;;;;;;28.66;29.08;97677.16;5076890;28;20032;-80
2021/09/11 07:15:37;;;;;;;12.10;5.95;;;;;;;29.38;28.31;97671.84;5059215;28;20024;-79
2021/09/11 07:18:02;;;;;;;13.43;6.07;;;;;;;29.89;27.80;97675.72;5087056;28;20028;-80
2021/09/11 07:20:30;;;;;;;8.80;6.07;;;;;;;31.38;26.13;97666.25;5065275;28;20475;-80
2021/09/11 07:22:55;;;;;;;15.18;6.20;;;;;;;31.06;25.86;97659.91;5057124;28;20035;-83
2021/09/11 07:25:21;;;;;;;11.82;6.75;;;;;;;30.55;26.68;97665.41;5054263;28;20127;-88
2021/09/11 07:27:46;;;;;;;19.30;5.78;;;;;;;31.02;26.24;97657.78;5054219;28;20032;-82
2021/09/11 07:30:12;;;;;;;9.10;5.72;;;;;;;28.32;28.69;97664.25;5059770;28;20095;-80
2021/09/11 07:32:38;;;;;;;10.30;5.38;;;;;;;29.67;27.81;97659.56;5067013;28;20082;-80
2021/09/11 07:35:04;;;;;;;18.58;7.63;;;;;;;29.99;27.53;97647.69;5060587;28;20461;-80
2021/09/11 07:37:29;;;;;;;20.80;7.05;;;;;;;30.79;26.60;97663.84;5077309;28;20533;-79
2021/09/11 07:39:55;;;;;;;22.23;8.00;;;;;;;31.23;25.77;97651.06;5060740;28;20392;-80
2021/09/11 07:42:20;;;;;;;9.35;6.55;;;;;;;30.24;26.58;97640.41;5062367;28;20040;-81
2021/09/11 07:44:46;;;;;;;8.73;5.57;;;;;;;31.33;25.62;97643.97;5082939;28;20035;-80
2021/09/11 07:47:11;;;;;;;18.17;6.13;;;;;;;32.92;24.14;97639.41;5060572;28;20021;-79
2021/09/11 07:49:37;;;;;;;12.18;5.50;;;;;;;33.69;22.72;97634.88;5043468;28;20096;-79
2021/09/11 07:52:04;;;;;;;13.10;5.65;;;;;;;34.15;22.61;97631.31;5047980;28;20032;-80
2021/09/11 07:54:29;;;;;;;13.18;6.15;;;;;;;34.51;22.27;97619.91;5065914;28;20033;-80
2021/09/11 07:56:55;;;;;;;12.07;5.53;;;;;;;34.45;22.04;97614.50;5085962;28;20062;-81
2021/09/11 07:59:20;;;;;;;16.48;5.70;;;;;;;34.45;21.74;97620.91;5073129;28;20016;-80
2021/09/11 08:01:46;;;;;;;15.10;4.75;;;;;;;34.39;22.04;97621.88;5070372;28;20032;-80
2021/09/11 08:04:11;;;;;;;16.63;5.07;;;;;;;33.97;22.06;97628.63;5059561;28;20018;-80
2021/09/11 08:06:37;;;;;;;10.55;4.20;;;;;;;34.30;21.86;97618.59;5059340;28;20029;-79
2021/09/11 08:09:02;;;;;;;6.97;4.25;;;;;;;34.56;21.11;97611.69;5058315;28;20115;-80
2021/09/11 08:11:28;;;;;;;10.30;3.75;;;;;;;34.07;21.56;97606.66;5058109;28;20479;-80
2021/09/11 08:13:54;;;;;;;13.18;4.45;;;;;;;34.67;21.40;97612.78;5057687;28;20063;-81
2021/09/11 08:16:20;;;;;;;12.35;4.07;;;;;;;33.42;22.56;97615.00;5058303;28;20048;-79
2021/09/11 08:18:52;;;;;;;18.75;4.40;;;;;;;33.84;22.05;97603.88;5076761;28;20166;-80
2021/09/11 08:21:17;;;;;;;5.03;3.65;;;;;;;34.52;21.62;97601.28;5059803;28;20399;-80
2021/09/11 08:23:43;;;;;;;15.15;5.60;;;;;;;34.94;21.09;97601.91;5059185;28;20042;-80
2021/09/11 08:26:09;;;;;;;18.90;4.72;;;;;;;35.47;20.96;97601.56;5058605;28;20405;-80
2021/09/11 08:28:35;;;;;;;14.55;4.85;;;;;;;35.97;20.31;97580.13;5051531;28;20432;-80
2021/09/11 08:31:01;;;;;;;12.00;4.30;;;;;;;36.38;19.81;97576.00;5061327;28;20033;-79
2021/09/11 08:33:26;;;;;;;6.55;3.38;;;;;;;35.34;19.59;97589.66;5054278;28;20088;-80
2021/09/11 08:35:52;;;;;;;9.00;2.83;;;;;;;36.63;18.87;97587.53;5070434;28;20462;-80
2021/09/11 08:38:18;;;;;;;6.78;3.40;;;;;;;35.21;20.34;97586.31;5050755;28;20067;-80
2021/09/11 08:40:43;;;;;;;13.02;6.68;;;;;;;34.32;21.43;97576.69;5034376;28;20029;-80
2021/09/11 08:43:09;;;;;;;7.22;3.90;;;;;;;35.18;20.00;97564.56;5070193;28;20035;-80
2021/09/11 08:45:35;;;;;;;6.70;2.75;;;;;;;35.50;19.82;97576.00;5043416;28;20036;-80
2021/09/11 08:48:02;;;;;;;6.22;3.10;;;;;;;36.66;18.20;97561.06;5026675;28;20490;-81
2021/09/11 08:50:29;;;;;;;10.85;2.92;;;;;;;36.78;18.02;97565.38;5041030;28;20170;-81
2021/09/11 08:52:55;;;;;;;3.40;2.50;;;;;;;36.55;18.57;97570.41;5031784;28;20033;-80
2021/09/11 08:55:21;;;;;;;8.98;3.15;;;;;;;35.17;19.68;97557.31;5004887;28;20393;-79
2021/09/11 08:58:06;;;;;;;10.40;2.90;;;;;;;35.14;19.26;97560.59;5062867;28;20028;-80
2021/09/11 09:00:44;;;;;;;9.52;2.80;;;;;;;36.14;18.67;97557.84;5031353;28;20036;-80
2021/09/11 09:03:36;;;;;;;12.50;2.47;;;;;;;36.54;18.24;97563.13;5052922;28;20548;-79
2021/09/11 09:06:20;;;;;;;6.95;2.75;;;;;;;38.75;16.68;97555.81;5054751;28;20017;-81
2021/09/11 09:08:57;;;;;;;7.57;3.03;;;;;;;37.87;17.28;97529.56;5037658;28;20043;-81
2021/09/11 09:11:27;;;;;;;7.72;3.00;;;;;;;38.00;17.11;97545.06;5051774;28;20035;-81
2021/09/11 09:13:59;;;;;;;23.98;3.95;;;;;;;37.34;17.44;97549.25;5027267;28;20475;-81
2021/09/11 09:16:30;;;;;;;5.65;2.33;;;;;;;36.85;17.38;97540.94;5017604;28;20554;-81
2021/09/11 09:18:57;;;;;;;9.63;3.08;;;;;;;38.13;16.46;97519.44;5058425;28;20468;-81
2021/09/11 09:21:28;;;;;;;7.65;3.08;;;;;;;37.90;16.66;97529.06;5055133;28;20036;-81
2021/09/11 09:24:05;;;;;;;8.48;2.58;;;;;;;37.36;16.87;97524.69;5064294;28;20024;-81
2021/09/11 09:26:51;;;;;;;8.20;2.30;;;;;;;36.22;17.30;97515.56;5047289;28;20543;-81
2021/09/11 09:29:17;;;;;;;6.53;2.33;;;;;;;37.05;17.04;97501.25;5053317;28;20038;-80
2021/09/11 09:31:44;;;;;;;7.18;2.50;;;;;;;37.21;17.13;97518.97;5071655;28;20021;-80
2021/09/11 09:34:10;;;;;;;7.10;2.08;;;;;;;37.31;16.43;97505.13;5053298;28;20024;-81
2021/09/11 09:36:40;;;;;;;7.65;2.70;;;;;;;37.53;16.72;97510.63;5036296;28;20523;-82
2021/09/11 09:39:10;;;;;;;4.15;2.97;;;;;;;37.84;16.23;97491.00;5053669;28;20016;-81
2021/09/11 09:41:45;;;;;;;4.32;2.33;;;;;;;37.26;16.50;97497.53;5040839;28;20089;-81
2021/09/11 09:44:12;;;;;;;6.15;3.35;;;;;;;37.92;15.79;97496.13;5066118;28;20028;-81
2021/09/11 09:46:40;;;;;;;6.70;3.67;;;;;;;39.25;14.81;97503.91;5053817;28;20770;-81
2021/09/11 09:49:06;;;;;;;9.43;3.17;;;;;;;38.83;14.78;97482.53;5053263;28;20021;-81
2021/09/11 09:51:32;;;;;;;6.93;2.90;;;;;;;38.05;15.21;97486.41;5054655;28;20024;-81
2021/09/11 09:53:58;;;;;;;4.18;2.42;;;;;;;37.00;15.85;97475.25;5072533;28;20055;-82
2021/09/11 09:56:25;;;;;;;13.57;2.40;;;;;;;35.88;16.29;97482.22;5054700;28;20096;-79
2021/09/11 09:58:51;;;;;;;11.02;2.40;;;;;;;35.68;16.41;97493.09;5061926;28;20617;-80
2021/09/11 10:01:16;;;;;;;5.70;2.00;;;;;;;34.84;16.14;97474.63;5062483;28;20103;-80
2021/09/11 10:03:42;;;;;;;4.88;2.47;;;;;;;35.59;15.62;97472.34;5076126;28;20411;-79
2021/09/11 10:06:15;;;;;;;4.60;2.35;;;;;;;36.50;14.70;97473.56;5054767;28;20028;-79
2021/09/11 10:08:49;;;;;;;13.55;3.20;;;;;;;37.62;13.90;97467.13;5072940;28;20040;-78
2021/09/11 10:11:14;;;;;;;8.02;2.35;;;;;;;36.67;11.95;97449.22;5055391;28;20025;-79
2021/09/11 10:13:57;;;;;;;3.10;1.90;;;;;;;37.61;11.90;97446.72;5077158;28;20050;-80
2021/09/11 10:16:30;;;;;;;12.95;2.60;;;;;;;38.91;12.68;97454.03;5062358;28;20028;-81
2021/09/11 10:18:56;;;;;;;4.55;2.30;;;;;;;39.68;12.07;97458.53;5054756;28;20082;-80
2021/09/11 10:21:38;;;;;;;4.13;2.55;;;;;;;40.20;11.49;97458.13;5057632;28;20020;-80
2021/09/11 10:24:03;;;;;;;2.60;2.10;;;;;;;40.58;11.36;97460.22;5053096;28;20036;-80
2021/09/11 10:29:33;;;;;;;7.03;2.25;;;;;;;40.41;10.95;97442.88;5054872;28;20032;-81
2021/09/11 10:32:16;;;;;;;4.15;2.53;;;;;;;40.96;10.88;97443.72;5056392;28;20028;-80
2021/09/11 10:35:01;;;;;;;3.40;2.10;;;;;;;41.49;11.18;97453.13;5045706;28;20033;-80
2021/09/11 10:37:30;;;;;;;6.25;2.50;;;;;;;40.98;10.90;97459.13;5043907;28;20032;-80
2021/09/11 10:40:35;;;;;;;5.05;2.72;;;;;;;38.40;13.12;97435.41;5065319;28;20033;-80
2021/09/11 10:43:04;;;;;;;5.55;2.22;;;;;;;37.90;13.58;97441.63;5031051;28;20047;-80
2021/09/11 10:45:53;;;;;;;6.40;2.30;;;;;;;39.12;12.74;97440.03;5049970;28;20062;-81
2021/09/11 10:48:43;;;;;;;5.82;2.20;;;;;;;39.87;13.08;97439.97;5054704;28;20119;-80
2021/09/11 10:51:34;;;;;;;6.93;2.60;;;;;;;38.89;12.55;97436.66;5058259;28;20024;-80
2021/09/11 10:54:08;;;;;;;7.00;2.60;;;;;;;39.37;12.40;97428.88;5047480;28;20051;-80
2021/09/11 10:56:48;;;;;;;3.13;2.00;;;;;;;40.07;11.65;97431.50;5065963;28;20044;-80
2021/09/11 10:59:14;;;;;;;4.33;2.47;;;;;;;40.48;10.74;97420.13;5050317;28;20043;-79
2021/09/11 11:02:13;;;;;;;3.25;2.60;;;;;;;40.50;10.13;97420.66;5061891;28;20271;-79
2021/09/11 11:04:40;;;;;;;28.00;3.15;;;;;;;41.47;10.42;97418.88;5048482;28;20020;-81
2021/09/11 11:07:11;;;;;;;4.50;2.72;;;;;;;40.63;11.13;97414.47;5043007;28;20049;-80
2021/09/11 11:09:41;;;;;;;3.63;2.53;;;;;;;39.49;11.83;97407.84;5058567;28;20025;-80
2021/09/11 11:12:08;;;;;;;7.15;2.17;;;;;;;39.87;11.70;97402.72;5064240;28;20025;-80
2021/09/11 11:14:37;;;;;;;5.30;2.42;;;;;;;41.12;11.00;97397.53;5048355;28;20021;-79
2021/09/11 11:17:04;;;;;;;5.10;2.25;;;;;;;38.48;12.07;97391.00;5049280;28;20032;-80
2021/09/11 11:19:33;;;;;;;2.97;2.03;;;;;;;36.12;12.67;97378.91;5045753;28;20033;-81
2021/09/11 11:22:03;;;;;;;3.53;1.80;;;;;;;36.89;12.33;97377.47;5048632;28;20029;-81
2021/09/11 11:24:37;;;;;;;3.03;2.30;;;;;;;38.52;12.06;97368.06;5049445;28;20032;-80
2021/09/11 11:27:08;;;;;;;6.53;2.25;;;;;;;38.95;12.58;97385.16;5055380;28;20190;-80
2021/09/11 11:29:35;;;;;;;6.07;3.17;;;;;;;38.50;12.68;97371.97;5079714;28;20052;-79
2021/09/11 11:32:02;;;;;;;5.88;2.20;;;;;;;39.01;12.79;97381.25;5078104;28;20086;-80
2021/09/11 11:34:28;;;;;;;3.15;2.13;;;;;;;38.78;12.28;97361.34;5065115;28;20050;-79
2021/09/11 11:36:56;;;;;;;5.97;2.60;;;;;;;39.17;12.78;97348.47;5071259;28;20024;-80